createdAt,value
2022-10-23T00:01:16.712Z,99994.69
2022-10-23T00:03:47.192Z,100002.50
2022-10-23T00:06:16.062Z,100001.38
2022-10-23T00:08:44.929Z,99991.38
2022-10-23T00:11:15.580Z,100002.50
2022-10-23T00:13:43.777Z,100000.34
2022-10-23T00:16:12.535Z,99993.31
2022-10-23T00:18:41.188Z,99999.84
2022-10-23T00:21:12.803Z,99993.13
2022-10-23T00:23:41.618Z,99973.72
2022-10-23T00:26:15.113Z,99994.94
2022-10-23T00:28:43.951Z,100002.75
2022-10-23T00:31:12.354Z,99998.09
2022-10-23T00:33:42.561Z,99996.59
2022-10-23T00:36:15.039Z,99995.88
2022-10-23T00:38:46.138Z,99994.47
2022-10-23T00:41:18.277Z,99991.13
2022-10-23T00:44:06.346Z,99996.44
2022-10-23T00:46:35.587Z,99999.41
2022-10-23T00:49:04.840Z,100004.53
2022-10-23T00:51:40.362Z,99994.81
2022-10-23T00:54:25.412Z,99992.28
2022-10-23T00:56:57.179Z,99980.81
2022-10-23T00:59:26.301Z,99990.63
2022-10-23T01:01:54.752Z,99981.84
2022-10-23T01:04:23.949Z,99988.94
2022-10-23T01:07:00.752Z,99991.00
2022-10-23T01:09:36.169Z,99973.75
2022-10-23T01:12:11.861Z,99973.84
2022-10-23T01:14:48.337Z,99985.66
2022-10-23T01:17:26.455Z,99983.91
2022-10-23T01:20:11.900Z,99983.59
2022-10-23T01:23:02.730Z,99986.69
2022-10-23T01:25:43.558Z,99981.63
2022-10-23T01:28:22.778Z,99983.38
2022-10-23T01:30:52.670Z,99983.25
2022-10-23T01:33:26.974Z,99977.22
2022-10-23T01:36:02.394Z,99980.66
2022-10-23T01:38:40.776Z,99973.53
2022-10-23T01:41:23.514Z,99975.91
2022-10-23T01:43:57.690Z,99967.28
2022-10-23T01:46:30.883Z,99970.75
2022-10-23T01:49:01.472Z,99971.63
2022-10-23T01:51:32.349Z,99973.19
2022-10-23T01:54:08.514Z,99964.03
2022-10-23T01:56:40.554Z,99961.44
2022-10-23T01:59:13.979Z,99974.53
2022-10-23T02:01:45.436Z,99980.56
2022-10-23T02:04:19.422Z,99966.50
2022-10-23T02:06:47.622Z,99965.72
2022-10-23T02:09:15.672Z,99967.34
2022-10-23T02:11:53.779Z,99966.38
2022-10-23T02:14:34.083Z,99941.09
2022-10-23T02:17:09.640Z,99962.75
2022-10-23T02:19:46.926Z,99962.22
2022-10-23T02:22:19.928Z,99962.41
2022-10-23T02:24:52.725Z,99945.31
2022-10-23T02:27:27.401Z,99958.59
2022-10-23T02:30:06.250Z,99955.72
2022-10-23T02:32:37.903Z,99963.69
2022-10-23T02:35:07.006Z,99968.88
2022-10-23T02:37:35.883Z,99957.03
2022-10-23T02:40:06.264Z,99961.66
2022-10-23T02:42:51.243Z,99962.06
2022-10-23T02:45:30.345Z,99959.09
2022-10-23T02:48:05.525Z,99948.19
2022-10-23T02:50:39.655Z,99949.69
2022-10-23T02:53:17.317Z,99968.84
2022-10-23T02:56:02.075Z,99965.59
2022-10-23T02:58:41.855Z,99972.63
2022-10-23T03:01:16.117Z,99960.56
2022-10-23T03:03:54.351Z,99961.56
2022-10-23T03:06:27.746Z,99962.34
2022-10-23T03:09:00.788Z,99956.25
2022-10-23T03:11:29.516Z,99954.00
2022-10-23T03:13:57.786Z,99964.84
2022-10-23T03:16:27.407Z,99971.88
2022-10-23T03:18:56.356Z,99976.09
2022-10-23T03:21:25.172Z,99979.94
2022-10-23T03:23:55.108Z,99982.22
2022-10-23T03:26:35.400Z,99979.56
2022-10-23T03:29:03.526Z,99979.97
2022-10-23T03:31:32.890Z,99979.91
2022-10-23T03:34:04.026Z,99988.28
2022-10-23T03:36:34.368Z,99991.53
2022-10-23T03:39:04.056Z,99987.72
2022-10-23T03:41:32.990Z,99995.69
2022-10-23T03:44:01.032Z,99999.78
2022-10-23T03:46:29.211Z,100001.44
2022-10-23T03:48:59.603Z,100007.25
2022-10-23T03:51:27.818Z,99994.69
2022-10-23T03:53:56.337Z,99991.28
2022-10-23T03:56:24.763Z,100003.31
2022-10-23T03:58:54.567Z,99992.75
2022-10-23T04:01:29.161Z,99997.38
2022-10-23T04:03:58.690Z,100000.34
2022-10-23T04:06:27.648Z,99990.41
2022-10-23T04:08:58.251Z,99985.78
2022-10-23T04:11:28.253Z,99980.06
2022-10-23T04:13:56.684Z,100003.72
2022-10-23T04:16:25.185Z,100000.69
2022-10-23T04:18:53.881Z,99984.97
2022-10-23T04:21:23.342Z,99983.47
2022-10-23T04:23:51.480Z,99963.81
2022-10-23T04:26:19.717Z,99993.50
2022-10-23T04:28:47.833Z,99987.31
2022-10-23T04:31:17.295Z,99983.41
2022-10-23T04:33:45.708Z,99996.78
2022-10-23T04:36:28.543Z,99991.97
2022-10-23T04:38:57.091Z,99991.59
2022-10-23T04:41:27.098Z,99983.38
2022-10-23T04:43:55.166Z,99976.91
2022-10-23T04:46:23.330Z,99981.25
2022-10-23T04:48:51.454Z,99963.59
2022-10-23T04:51:46.873Z,99997.59
2022-10-23T04:54:40.490Z,99961.38
2022-10-23T04:57:28.679Z,99973.56
2022-10-23T05:00:10.899Z,99979.56
2022-10-23T05:02:49.826Z,99973.59
2022-10-23T05:05:19.262Z,99971.97
2022-10-23T05:08:18.047Z,99979.03
2022-10-23T05:11:06.786Z,99973.59
2022-10-23T05:13:40.047Z,99977.41
2022-10-23T05:16:09.912Z,99977.94
2022-10-23T05:18:42.039Z,99980.41
2022-10-23T05:21:16.284Z,99978.22
2022-10-23T05:23:47.240Z,99992.06
2022-10-23T05:26:15.783Z,99995.59
2022-10-23T05:28:46.622Z,99988.78
2022-10-23T05:31:19.110Z,99985.00
2022-10-23T05:33:51.639Z,99992.59
2022-10-23T05:36:23.142Z,99983.09
2022-10-23T05:38:58.935Z,99976.31
2022-10-23T05:41:27.831Z,99979.31
2022-10-23T05:43:59.437Z,99987.41
2022-10-23T05:46:46.013Z,100002.13
2022-10-23T05:49:40.229Z,99986.63
2022-10-23T05:52:20.310Z,99992.06
2022-10-23T05:55:08.943Z,99993.13
2022-10-23T05:57:48.999Z,99973.84
2022-10-23T06:00:22.094Z,99978.22
2022-10-23T06:03:03.542Z,99992.88
2022-10-23T06:08:19.408Z,99997.50
2022-10-23T06:10:51.980Z,99989.31
2022-10-23T06:13:21.055Z,99979.81
2022-10-23T06:15:51.474Z,99994.25
2022-10-23T06:18:21.975Z,99983.66
2022-10-23T06:20:57.353Z,99990.41
2022-10-23T06:23:27.505Z,99992.34
2022-10-23T06:26:07.817Z,99996.69
2022-10-23T06:28:53.279Z,99991.75
2022-10-23T06:31:26.568Z,99993.94
2022-10-23T06:33:56.439Z,99995.56
2022-10-23T06:36:25.661Z,100000.47
2022-10-23T06:42:03.880Z,99990.69
2022-10-23T06:44:55.192Z,99991.19
2022-10-23T06:47:52.562Z,100002.34
2022-10-23T06:50:46.601Z,99994.22
2022-10-23T06:53:19.266Z,100011.88
2022-10-23T06:55:55.481Z,100008.06
2022-10-23T06:58:26.127Z,100009.63
2022-10-23T07:01:06.804Z,100010.94
2022-10-23T07:03:35.476Z,99991.97
2022-10-23T07:06:09.247Z,99968.41
2022-10-23T07:08:38.378Z,99994.75
2022-10-23T07:11:19.323Z,99999.34
2022-10-23T07:13:51.609Z,100002.59
2022-10-23T07:16:23.555Z,100004.50
2022-10-23T07:18:58.796Z,100002.63
2022-10-23T07:21:30.937Z,99989.31
2022-10-23T07:24:15.498Z,100001.78
2022-10-23T07:26:44.686Z,100000.41
2022-10-23T07:29:14.632Z,100005.88
2022-10-23T07:31:43.771Z,100002.03
2022-10-23T07:34:29.951Z,100010.78
2022-10-23T07:37:14.991Z,99998.84
2022-10-23T07:39:43.275Z,100012.38
2022-10-23T07:42:12.040Z,100013.19
2022-10-23T07:44:43.073Z,100020.47
2022-10-23T07:47:11.223Z,100024.03
2022-10-23T07:49:43.325Z,100015.63
2022-10-23T07:52:11.451Z,100015.56
2022-10-23T07:54:59.347Z,100020.69
2022-10-23T07:57:31.291Z,100016.91
2022-10-23T08:00:12.622Z,100021.84
2022-10-23T08:02:53.187Z,100026.41
2022-10-23T08:05:21.803Z,100023.47
2022-10-23T08:07:56.288Z,100024.25
2022-10-23T08:10:24.481Z,100030.22
2022-10-23T08:12:52.490Z,100015.03
2022-10-23T08:15:27.254Z,100016.69
2022-10-23T08:18:01.682Z,100007.13
2022-10-23T08:20:48.614Z,100033.50
2022-10-23T08:23:19.290Z,100027.53
2022-10-23T08:25:49.455Z,100027.50
2022-10-23T08:28:19.104Z,100012.25
2022-10-23T08:30:56.840Z,100031.09
2022-10-23T08:33:25.537Z,100026.00
2022-10-23T08:35:54.179Z,100024.63
2022-10-23T08:38:29.891Z,100028.47
2022-10-23T08:41:00.330Z,100034.69
2022-10-23T08:43:55.801Z,100013.81
2022-10-23T08:46:41.052Z,100032.09
2022-10-23T08:49:37.669Z,100036.22
2022-10-23T08:52:16.124Z,100029.28
2022-10-23T08:54:57.487Z,100033.25
2022-10-23T08:57:33.454Z,100046.16
2022-10-23T09:00:04.895Z,100047.44
2022-10-23T09:02:39.540Z,100042.56
2022-10-23T09:05:14.937Z,100041.16
2022-10-23T09:08:01.060Z,100045.00
2022-10-23T09:10:57.589Z,100043.13
2022-10-23T09:14:00.925Z,100040.34
2022-10-23T09:16:42.718Z,100049.94
2022-10-23T09:19:17.142Z,100041.28
2022-10-23T09:21:49.816Z,100057.50
2022-10-23T09:24:19.227Z,100054.50
2022-10-23T09:26:49.772Z,100059.47
2022-10-23T09:29:24.294Z,100058.94
2022-10-23T09:31:54.467Z,100053.72
2022-10-23T09:34:25.654Z,100064.38
2022-10-23T09:39:32.016Z,100068.75
2022-10-23T09:42:02.462Z,100068.47
2022-10-23T09:44:32.396Z,100074.72
2022-10-23T09:47:02.398Z,100069.84
2022-10-23T09:49:33.808Z,100073.09
2022-10-23T09:52:04.351Z,100064.31
2022-10-23T09:54:34.742Z,100074.91
2022-10-23T09:57:16.386Z,100071.34
2022-10-23T09:59:44.825Z,100069.88
2022-10-23T10:02:27.234Z,100072.28
2022-10-23T10:05:24.824Z,100068.97
2022-10-23T10:07:59.926Z,100059.16
2022-10-23T10:10:32.203Z,100049.31
2022-10-23T10:13:11.958Z,100064.78
2022-10-23T10:15:51.659Z,100069.28
2022-10-23T10:18:25.677Z,100071.47
2022-10-23T10:21:04.914Z,100059.38
2022-10-23T10:23:38.752Z,100055.06
2022-10-23T10:26:21.050Z,100068.53
2022-10-23T10:29:00.325Z,100063.44
2022-10-23T10:31:39.908Z,100065.56
2022-10-23T10:34:16.399Z,100067.88
2022-10-23T10:36:52.248Z,100065.88
2022-10-23T10:39:33.168Z,100069.28
2022-10-23T10:42:19.824Z,100059.56
2022-10-23T10:45:20.291Z,100053.41
2022-10-23T10:48:01.544Z,100053.94
2022-10-23T10:50:44.876Z,100052.56
2022-10-23T10:53:33.592Z,100060.38
2022-10-23T10:56:05.422Z,100067.44
2022-10-23T10:58:41.200Z,100043.03
2022-10-23T11:01:15.955Z,100065.59
2022-10-23T11:03:52.130Z,100055.13
2022-10-23T11:06:24.389Z,100044.97
2022-10-23T11:08:57.876Z,100061.06
2022-10-23T11:11:37.199Z,100060.38
2022-10-23T11:14:05.450Z,100069.38
2022-10-23T11:16:37.183Z,100064.50
2022-10-23T11:19:13.005Z,100058.13
2022-10-23T11:21:46.158Z,100069.78
2022-10-23T11:24:58.203Z,100068.16
2022-10-23T11:28:09.949Z,100077.19
2022-10-23T11:30:50.673Z,100080.41
2022-10-23T11:33:53.566Z,100074.72
2022-10-23T11:36:35.767Z,100073.94
2022-10-23T11:39:18.722Z,100077.44
2022-10-23T11:41:55.723Z,100068.72
2022-10-23T11:44:40.154Z,100061.38
2022-10-23T11:47:39.526Z,100051.50
2022-10-23T11:50:16.702Z,100012.47
2022-10-23T11:53:12.944Z,100048.22
2022-10-23T11:55:56.299Z,100049.84
2022-10-23T11:58:32.532Z,100042.56
2022-10-23T12:01:06.911Z,100047.84
2022-10-23T12:03:44.355Z,100040.56
2022-10-23T12:06:21.892Z,100049.88
2022-10-23T12:08:54.471Z,100038.00
2022-10-23T12:11:41.249Z,100049.00
2022-10-23T12:14:29.631Z,100050.06
2022-10-23T12:17:01.074Z,100046.47
2022-10-23T12:19:31.386Z,100038.59
2022-10-23T12:22:02.544Z,100039.75
2022-10-23T12:24:52.489Z,100030.59
2022-10-23T12:27:30.631Z,100041.13
2022-10-23T12:30:15.612Z,100049.16
2022-10-23T12:33:06.477Z,100033.00
2022-10-23T12:35:54.772Z,100039.25
2022-10-23T12:38:26.383Z,100049.78
2022-10-23T12:40:56.334Z,100050.22
2022-10-23T12:43:28.923Z,100039.28
2022-10-23T12:46:04.091Z,100060.75
2022-10-23T12:48:35.451Z,100061.63
2022-10-23T12:51:03.499Z,100066.22
2022-10-23T12:53:31.557Z,100053.47
2022-10-23T12:56:04.391Z,100051.06
2022-10-23T12:58:34.407Z,100055.06
2022-10-23T13:01:08.489Z,100050.50
2022-10-23T13:03:39.295Z,100032.97
2022-10-23T13:06:08.198Z,100016.22
2022-10-23T13:08:41.986Z,100038.47
2022-10-23T13:11:29.798Z,100043.09
2022-10-23T13:14:01.888Z,100026.00
2022-10-23T13:16:31.594Z,100047.09
2022-10-23T13:19:00.081Z,100049.00
2022-10-23T13:21:30.268Z,100061.88
2022-10-23T13:23:58.714Z,100060.56
2022-10-23T13:26:34.679Z,100052.56
2022-10-23T13:29:07.391Z,100054.72
2022-10-23T13:31:39.024Z,100058.59
2022-10-23T13:34:20.011Z,100060.03
2022-10-23T13:36:53.857Z,100058.81
2022-10-23T13:39:25.619Z,100050.06
2022-10-23T13:41:53.704Z,100043.78
2022-10-23T13:44:23.752Z,100053.09
2022-10-23T13:46:53.599Z,100045.78
2022-10-23T13:49:21.822Z,100045.31
2022-10-23T13:51:53.312Z,100044.34
2022-10-23T13:54:23.461Z,100045.88
2022-10-23T13:56:51.944Z,100056.22
2022-10-23T13:59:19.980Z,100047.56
2022-10-23T14:01:50.170Z,100052.38
2022-10-23T14:04:20.217Z,100044.03
2022-10-23T14:06:48.574Z,100044.94
2022-10-23T14:09:19.636Z,100049.19
2022-10-23T14:11:48.076Z,100041.91
2022-10-23T14:14:18.528Z,100045.94
2022-10-23T14:16:46.782Z,100037.56
2022-10-23T14:19:14.778Z,100042.72
2022-10-23T14:21:44.191Z,100040.56
2022-10-23T14:24:12.288Z,100041.69
2022-10-23T14:26:40.283Z,100042.50
2022-10-23T14:29:11.419Z,100042.06
2022-10-23T14:31:42.059Z,100035.66
2022-10-23T14:34:10.088Z,100024.53
2022-10-23T14:36:49.501Z,100026.25
2022-10-23T14:39:20.017Z,100032.69
2022-10-23T14:41:52.311Z,100031.34
2022-10-23T14:44:22.682Z,100031.41
2022-10-23T14:46:50.714Z,100036.84
2022-10-23T14:49:18.817Z,100032.41
2022-10-23T14:51:46.788Z,100024.28
2022-10-23T14:54:15.775Z,100015.00
2022-10-23T14:56:45.103Z,100013.00
2022-10-23T14:59:15.146Z,100024.25
2022-10-23T15:01:48.183Z,100011.13
2022-10-23T15:04:16.819Z,100026.88
2022-10-23T15:06:46.328Z,100015.25
2022-10-23T15:09:14.917Z,99999.22
2022-10-23T15:11:42.950Z,100018.72
2022-10-23T15:14:12.388Z,100004.31
2022-10-23T15:16:42.226Z,100008.56
2022-10-23T15:19:15.114Z,100031.28
2022-10-23T15:21:46.895Z,100015.31
2022-10-23T15:24:17.648Z,100034.06
2022-10-23T15:26:46.119Z,100035.97
2022-10-23T15:29:16.378Z,100032.16
2022-10-23T15:31:54.372Z,100024.81
2022-10-23T15:34:24.858Z,100035.88
2022-10-23T15:36:53.966Z,100038.91
2022-10-23T15:39:24.192Z,100035.06
2022-10-23T15:41:54.204Z,100045.09
2022-10-23T15:44:25.687Z,100040.47
2022-10-23T15:46:53.686Z,100043.09
2022-10-23T15:49:21.720Z,100054.00
2022-10-23T15:51:49.866Z,100046.25
2022-10-23T15:54:22.027Z,100047.38
2022-10-23T15:56:52.671Z,100050.69
2022-10-23T15:59:25.026Z,100055.81
2022-10-23T16:01:53.789Z,100042.69
2022-10-23T16:04:22.639Z,100047.66
2022-10-23T16:06:50.942Z,100052.41
2022-10-23T16:09:19.002Z,100030.75
2022-10-23T16:11:46.955Z,100059.53
2022-10-23T16:14:17.649Z,100050.50
2022-10-23T16:16:47.034Z,100045.78
2022-10-23T16:19:15.369Z,100047.75
2022-10-23T16:21:43.603Z,100049.41
2022-10-23T16:24:11.831Z,100046.91
2022-10-23T16:26:40.064Z,100046.38
2022-10-23T16:29:09.541Z,100047.69
2022-10-23T16:31:37.910Z,100048.63
2022-10-23T16:34:07.974Z,100051.66
2022-10-23T16:36:39.147Z,100049.19
2022-10-23T16:39:11.460Z,100055.03
2022-10-23T16:41:58.051Z,100055.13
2022-10-23T16:44:32.976Z,100058.47
2022-10-23T16:47:04.488Z,100052.84
2022-10-23T16:49:36.100Z,100047.97
2022-10-23T16:52:04.102Z,100035.88
2022-10-23T16:54:32.369Z,100062.16
2022-10-23T16:57:00.407Z,100060.84
2022-10-23T16:59:28.523Z,100053.06
2022-10-23T17:01:56.629Z,100065.59
2022-10-23T17:04:24.844Z,100063.16
2022-10-23T17:06:54.260Z,100061.22
2022-10-23T17:09:23.605Z,100058.75
2022-10-23T17:11:53.886Z,100057.94
2022-10-23T17:14:25.252Z,100058.13
2022-10-23T17:16:54.262Z,100055.09
2022-10-23T17:19:43.654Z,100058.06
2022-10-23T17:22:14.679Z,100054.00
2022-10-23T17:24:46.139Z,100052.94
2022-10-23T17:27:17.455Z,100051.50
2022-10-23T17:29:45.529Z,100056.78
2022-10-23T17:32:13.630Z,100054.91
2022-10-23T17:34:41.942Z,100062.75
2022-10-23T17:37:10.234Z,100057.38
2022-10-23T17:39:41.369Z,99976.31
2022-10-23T17:42:10.565Z,99995.69
2022-10-23T17:44:38.568Z,99964.56
2022-10-23T17:47:06.914Z,100054.44
2022-10-23T17:49:35.330Z,100037.91
2022-10-23T17:52:03.367Z,100052.78
2022-10-23T17:54:31.467Z,100060.56
2022-10-23T17:57:00.894Z,100048.31
2022-10-23T17:59:29.240Z,100063.03
2022-10-23T18:01:59.708Z,100070.69
2022-10-23T18:04:28.482Z,100080.59
2022-10-23T18:06:59.660Z,100070.88
2022-10-23T18:09:27.848Z,100043.34
2022-10-23T18:11:56.409Z,100046.19
2022-10-23T18:14:29.497Z,100039.03
2022-10-23T18:16:57.982Z,100068.28
2022-10-23T18:19:26.215Z,100077.19
2022-10-23T18:21:54.424Z,100093.63
2022-10-23T18:24:26.677Z,100010.56
2022-10-23T18:26:57.612Z,100024.50
2022-10-23T18:29:26.981Z,100053.13
2022-10-23T18:31:56.714Z,100060.50
2022-10-23T18:34:26.295Z,100079.66
2022-10-23T18:36:55.791Z,100040.94
2022-10-23T18:39:25.807Z,100076.06
2022-10-23T18:41:55.592Z,100068.28
2022-10-23T18:44:25.516Z,100079.47
2022-10-23T18:46:56.146Z,100059.19
2022-10-23T18:49:24.945Z,100078.84
2022-10-23T18:51:53.054Z,100067.44
2022-10-23T18:54:22.571Z,100080.47
2022-10-23T18:56:51.135Z,100083.25
2022-10-23T18:59:21.396Z,100087.44
2022-10-23T19:01:50.058Z,100085.03
2022-10-23T19:04:20.555Z,100069.75
2022-10-23T19:06:50.041Z,100054.22
2022-10-23T19:09:19.091Z,100033.78
2022-10-23T19:11:48.281Z,100081.56
2022-10-23T19:14:16.599Z,100037.13
2022-10-23T19:16:54.430Z,100017.25
2022-10-23T19:19:28.360Z,100018.72
2022-10-23T19:21:59.628Z,100072.31
2022-10-23T19:24:33.671Z,100071.16
2022-10-23T19:27:03.217Z,100060.78
2022-10-23T19:29:32.388Z,100049.44
2022-10-23T19:32:00.608Z,100073.84
2022-10-23T19:34:29.996Z,100065.94
2022-10-23T19:36:58.028Z,100073.78
2022-10-23T19:39:26.654Z,100073.25
2022-10-23T19:41:55.561Z,100073.78
2022-10-23T19:44:23.542Z,100066.97
2022-10-23T19:46:52.014Z,100063.22
2022-10-23T19:49:20.476Z,100060.97
2022-10-23T19:51:54.001Z,100036.47
2022-10-23T19:54:22.331Z,100066.19
2022-10-23T19:56:50.556Z,100062.78
2022-10-23T19:59:20.406Z,100071.84
2022-10-23T20:01:49.372Z,100045.72
2022-10-23T20:04:19.092Z,100043.94
2022-10-23T20:06:48.139Z,100066.63
2022-10-23T20:09:17.610Z,100067.28
2022-10-23T20:11:45.755Z,100054.28
2022-10-23T20:14:14.479Z,100029.97
2022-10-23T20:16:45.822Z,100071.94
2022-10-23T20:21:45.720Z,100051.78
2022-10-23T20:24:17.532Z,100066.47
2022-10-23T20:26:47.460Z,100066.38
2022-10-23T20:29:15.923Z,100046.81
2022-10-23T20:31:44.534Z,100049.34
2022-10-23T20:34:13.037Z,100058.00
2022-10-23T20:36:45.628Z,100061.03
2022-10-23T20:39:19.545Z,100070.09
2022-10-23T20:41:48.507Z,100065.22
2022-10-23T20:44:18.722Z,100066.50
2022-10-23T20:46:46.988Z,100069.25
2022-10-23T20:49:15.387Z,100057.91
2022-10-23T20:51:46.583Z,100067.03
2022-10-23T20:54:14.743Z,100037.66
2022-10-23T20:56:44.229Z,100063.22
2022-10-23T20:59:14.446Z,99999.34
2022-10-23T21:01:44.272Z,100063.03
2022-10-23T21:04:13.560Z,100051.50
2022-10-23T21:06:57.729Z,100060.81
2022-10-23T21:09:31.436Z,100060.94
2022-10-23T21:12:00.901Z,100065.31
2022-10-23T21:14:29.539Z,100066.09
2022-10-23T21:16:57.577Z,100060.13
2022-10-23T21:19:25.581Z,100071.81
2022-10-23T21:21:53.833Z,100039.22
2022-10-23T21:24:22.083Z,100056.56
2022-10-23T21:26:50.142Z,100062.16
2022-10-23T21:29:20.452Z,100068.63
2022-10-23T21:31:53.921Z,100057.59
2022-10-23T21:34:22.291Z,100053.28
2022-10-23T21:39:38.179Z,100052.22
2022-10-23T21:42:06.220Z,100057.53
2022-10-23T21:44:35.504Z,100060.28
2022-10-23T21:47:03.458Z,100061.19
2022-10-23T21:49:31.422Z,100066.72
2022-10-23T21:51:59.392Z,100068.34
2022-10-23T21:54:27.328Z,100062.16
2022-10-23T21:56:55.374Z,100059.19
2022-10-23T21:59:26.685Z,100054.06
2022-10-23T22:01:58.433Z,100067.66
2022-10-23T22:04:26.491Z,100073.28
2022-10-23T22:06:54.528Z,100071.25
2022-10-23T22:09:23.284Z,100060.91
2022-10-23T22:11:52.259Z,100071.16
2022-10-23T22:14:20.616Z,100070.69
2022-10-23T22:16:49.475Z,100065.16
2022-10-23T22:19:20.023Z,100060.03
2022-10-23T22:21:48.795Z,100056.22
2022-10-23T22:24:17.547Z,100061.06
2022-10-23T22:26:48.513Z,100057.56
2022-10-23T22:29:17.978Z,100055.16
2022-10-23T22:31:48.946Z,100048.50
2022-10-23T22:34:47.803Z,100037.59
2022-10-23T22:37:11.941Z,100022.69
2022-10-23T22:39:40.250Z,100029.03
2022-10-23T22:42:08.607Z,100034.88
2022-10-23T22:44:36.577Z,100044.28
2022-10-23T22:47:04.864Z,100035.66
2022-10-23T22:49:34.148Z,100028.91
2022-10-23T22:52:02.144Z,100033.41
2022-10-23T22:54:31.307Z,100029.25
2022-10-23T22:56:59.316Z,100029.72
2022-10-23T22:59:27.648Z,100028.91
2022-10-23T23:01:55.893Z,100043.19
2022-10-23T23:04:39.706Z,100042.50
2022-10-23T23:07:10.651Z,100044.16
2022-10-23T23:09:39.565Z,100052.53
2022-10-23T23:12:08.670Z,100058.28
2022-10-23T23:14:37.008Z,100055.03
2022-10-23T23:17:05.293Z,100065.38
2022-10-23T23:19:33.312Z,100043.50
2022-10-23T23:22:02.194Z,100052.06
2022-10-23T23:24:32.142Z,100063.41
2022-10-23T23:27:00.268Z,100063.50
2022-10-23T23:29:29.561Z,100045.88
2022-10-23T23:31:57.690Z,100070.75
2022-10-23T23:34:25.752Z,100067.50
2022-10-23T23:36:53.831Z,100057.91
2022-10-23T23:39:21.894Z,100067.44
2022-10-23T23:41:51.418Z,100084.41
2022-10-23T23:44:19.347Z,100078.06
2022-10-23T23:46:47.347Z,100082.00
2022-10-23T23:49:15.311Z,100083.94
2022-10-23T23:51:43.446Z,100060.44
2022-10-23T23:54:11.379Z,100090.00
2022-10-23T23:56:39.420Z,100089.09
2022-10-23T23:59:08.970Z,100074.41
